Time;durP1;ratioP1;P1;durP2;ratioP2;P2;SDS_P1;SDS_P2;PMS_P1;PMS_P2;Temp;Humidity;BMP_temperature;BMP_pressure;BME280_temperature;BME280_humidity;BME280_pressure;Samples;Min_cycle;Max_cycle;Signal;HPM_P1;HPM_P2
2023/10/25 00:00:29;;;;;;;2.00;1.35;;;11.10;99.90;;;;;;5015430;28;20089;-45
2023/10/25 00:02:54;;;;;;;3.55;1.52;;;11.10;99.90;;;;;;5014083;28;20125;-46
2023/10/25 00:05:20;;;;;;;6.20;1.67;;;11.10;99.90;;;;;;5014706;28;20029;-46
2023/10/25 00:07:46;;;;;;;2.28;1.23;;;11.10;99.90;;;;;;5016904;28;20022;-46
2023/10/25 00:10:11;;;;;;;4.80;1.38;;;11.10;99.90;;;;;;5016872;28;20022;-59
2023/10/25 00:12:37;;;;;;;3.85;1.20;;;11.10;99.90;;;;;;5015624;28;20029;-56
2023/10/25 00:15:04;;;;;;;5.75;1.60;;;11.00;99.90;;;;;;5013911;28;20030;-55
2023/10/25 00:17:30;;;;;;;2.55;1.48;;;11.00;99.90;;;;;;5015992;28;20021;-55
2023/10/25 00:19:55;;;;;;;3.83;1.15;;;11.10;99.90;;;;;;5014451;28;20030;-48
2023/10/25 00:22:21;;;;;;;2.67;1.65;;;11.10;99.90;;;;;;5016736;28;20025;-49
2023/10/25 00:24:46;;;;;;;7.95;1.60;;;11.00;99.90;;;;;;5014882;28;20014;-48
2023/10/25 00:27:12;;;;;;;3.60;1.20;;;11.10;99.90;;;;;;5013885;28;20075;-46
2023/10/25 00:29:37;;;;;;;2.67;1.35;;;11.10;99.90;;;;;;5015315;28;20037;-48
2023/10/25 00:32:05;;;;;;;2.53;1.30;;;11.10;99.90;;;;;;5014717;28;20029;-51
2023/10/25 00:34:31;;;;;;;6.25;1.65;;;11.10;99.90;;;;;;5026653;28;20033;-52
2023/10/25 00:36:57;;;;;;;2.35;1.02;;;11.20;99.90;;;;;;5031558;28;20048;-53
2023/10/25 00:39:22;;;;;;;2.85;1.55;;;11.10;99.90;;;;;;5027927;28;20049;-56
2023/10/25 00:41:48;;;;;;;2.67;1.38;;;11.20;99.90;;;;;;5025048;28;20495;-45
2023/10/25 00:44:13;;;;;;;6.95;1.40;;;11.20;99.90;;;;;;5030560;28;20036;-53
2023/10/25 00:46:40;;;;;;;1.33;1.00;;;11.20;99.90;;;;;;5020184;28;20458;-47
2023/10/25 00:49:07;;;;;;;3.53;1.35;;;11.10;99.90;;;;;;5027046;28;20030;-48
2023/10/25 00:51:33;;;;;;;3.03;1.13;;;11.20;99.90;;;;;;5027956;28;20052;-48
2023/10/25 00:54:02;;;;;;;3.22;1.20;;;11.20;99.90;;;;;;5021620;28;20480;-49
2023/10/25 00:56:31;;;;;;;3.35;1.05;;;11.10;99.90;;;;;;5027184;28;20037;-51
2023/10/25 00:58:57;;;;;;;5.63;1.08;;;11.20;99.90;;;;;;5031386;28;20045;-45
2023/10/25 01:01:25;;;;;;;5.97;1.30;;;11.10;99.90;;;;;;5031569;28;20052;-48
2023/10/25 01:03:51;;;;;;;3.08;1.48;;;11.10;99.90;;;;;;5031632;28;20091;-49
2023/10/25 01:06:17;;;;;;;4.72;1.27;;;11.20;99.90;;;;;;5031504;28;20021;-52
2023/10/25 01:08:43;;;;;;;1.75;0.77;;;11.10;99.90;;;;;;5031363;28;20025;-57
2023/10/25 01:11:09;;;;;;;6.90;1.23;;;11.20;99.90;;;;;;5031240;28;20025;-51
2023/10/25 01:13:35;;;;;;;3.28;1.05;;;11.20;99.90;;;;;;5031106;28;20179;-47
2023/10/25 01:16:01;;;;;;;2.60;1.00;;;11.20;99.90;;;;;;5030832;28;20155;-51
2023/10/25 01:18:26;;;;;;;2.25;1.10;;;11.20;99.90;;;;;;5031262;28;20160;-53
2023/10/25 01:20:52;;;;;;;4.60;0.98;;;11.30;99.90;;;;;;5030842;28;20021;-49
2023/10/25 01:23:18;;;;;;;3.38;1.20;;;11.20;99.90;;;;;;5031288;28;20033;-52
2023/10/25 01:25:44;;;;;;;1.98;1.00;;;11.30;99.90;;;;;;5031119;28;20398;-46
2023/10/25 01:28:10;;;;;;;2.20;1.10;;;11.30;99.90;;;;;;5030971;28;20052;-55
2023/10/25 01:30:36;;;;;;;3.17;1.10;;;11.30;99.90;;;;;;5030845;28;20028;-56
2023/10/25 01:33:02;;;;;;;4.50;1.10;;;11.30;99.90;;;;;;5031146;28;20025;-50
2023/10/25 01:35:28;;;;;;;1.92;1.08;;;11.30;99.90;;;;;;5030628;28;20037;-53
2023/10/25 01:37:54;;;;;;;2.65;1.10;;;11.30;99.90;;;;;;5031017;28;20522;-54
2023/10/25 01:40:20;;;;;;;1.85;1.10;;;11.30;99.90;;;;;;5030820;28;20113;-51
2023/10/25 01:42:46;;;;;;;4.72;1.52;;;11.30;99.90;;;;;;5030499;28;20109;-45
2023/10/25 01:45:12;;;;;;;1.42;1.10;;;11.30;99.90;;;;;;5030857;28;20028;-50
2023/10/25 01:47:38;;;;;;;3.28;1.30;;;11.30;99.90;;;;;;5030518;28;20498;-45
2023/10/25 01:50:05;;;;;;;2.45;1.10;;;11.30;99.90;;;;;;5030595;28;20026;-56
2023/10/25 01:52:31;;;;;;;3.85;1.10;;;11.30;99.90;;;;;;5030624;28;20091;-45
2023/10/25 01:54:56;;;;;;;3.03;1.20;;;11.30;99.90;;;;;;5030536;28;20026;-49
2023/10/25 01:57:22;;;;;;;1.90;0.93;;;11.30;99.90;;;;;;5030395;28;20047;-49
2023/10/25 01:59:48;;;;;;;1.63;0.80;;;11.40;99.90;;;;;;5025406;28;20053;-49
2023/10/25 02:02:13;;;;;;;2.10;1.02;;;11.40;99.90;;;;;;5030091;28;20114;-51
2023/10/25 02:04:39;;;;;;;1.65;0.93;;;11.40;99.90;;;;;;5030377;28;20022;-53
2023/10/25 02:07:04;;;;;;;2.92;0.90;;;11.40;99.90;;;;;;5029978;28;20028;-52
2023/10/25 02:09:30;;;;;;;5.15;1.20;;;11.40;99.90;;;;;;5030675;28;20022;-46
2023/10/25 02:11:56;;;;;;;3.25;1.20;;;11.40;99.90;;;;;;5029715;28;20077;-48
2023/10/25 02:14:22;;;;;;;2.15;1.05;;;11.40;99.90;;;;;;5030282;28;20041;-51
2023/10/25 02:16:48;;;;;;;1.83;1.00;;;11.40;99.90;;;;;;5030021;28;20045;-48
2023/10/25 02:19:14;;;;;;;3.15;1.30;;;11.30;99.90;;;;;;5030194;28;20160;-49
2023/10/25 02:21:40;;;;;;;4.10;1.38;;;11.30;99.90;;;;;;5030108;28;20116;-47
2023/10/25 02:24:06;;;;;;;3.10;1.50;;;11.30;99.90;;;;;;5030428;28;20487;-46
2023/10/25 02:26:32;;;;;;;2.72;1.33;;;11.30;99.90;;;;;;5030320;28;20034;-48
2023/10/25 02:29:01;;;;;;;3.85;1.60;;;11.30;99.90;;;;;;5033007;28;20041;-54
2023/10/25 02:31:26;;;;;;;3.42;1.42;;;11.30;99.90;;;;;;5034341;28;20021;-46
2023/10/25 02:33:52;;;;;;;3.67;1.27;;;11.30;99.90;;;;;;5034161;28;20033;-50
2023/10/25 02:36:18;;;;;;;2.65;1.30;;;11.30;99.90;;;;;;5034168;28;20053;-46
2023/10/25 02:38:47;;;;;;;2.55;1.33;;;11.30;99.90;;;;;;5033265;28;20088;-51
2023/10/25 02:41:14;;;;;;;5.28;1.40;;;11.30;99.90;;;;;;5027460;28;20073;-50
2023/10/25 02:43:40;;;;;;;1.80;1.10;;;11.30;99.90;;;;;;5022410;28;20056;-48
2023/10/25 02:46:08;;;;;;;3.17;1.70;;;11.30;99.90;;;;;;5034106;28;20476;-48
2023/10/25 02:48:37;;;;;;;3.28;1.58;;;11.30;99.90;;;;;;5029740;28;20108;-52
2023/10/25 02:51:04;;;;;;;3.47;1.73;;;11.40;99.90;;;;;;5030219;28;20029;-50
2023/10/25 02:53:29;;;;;;;2.33;1.25;;;11.40;99.90;;;;;;5033810;28;20025;-45
2023/10/25 02:56:03;;;;;;;2.67;1.27;;;11.40;99.90;;;;;;5023780;28;20499;-48
2023/10/25 02:58:29;;;;;;;2.95;0.90;;;11.40;99.90;;;;;;5033617;28;20466;-53
2023/10/25 03:00:56;;;;;;;2.17;1.30;;;11.40;99.90;;;;;;5033554;28;20112;-49
2023/10/25 03:03:22;;;;;;;3.45;1.20;;;11.40;99.90;;;;;;5033333;28;20455;-50
2023/10/25 03:05:48;;;;;;;2.42;1.25;;;11.40;99.90;;;;;;5033905;28;20025;-44
2023/10/25 03:08:13;;;;;;;2.03;1.30;;;11.40;99.90;;;;;;5033518;28;20071;-46
2023/10/25 03:10:39;;;;;;;2.97;1.35;;;11.50;99.90;;;;;;5033578;28;20387;-49
2023/10/25 03:13:05;;;;;;;3.67;1.38;;;11.50;99.90;;;;;;5024117;28;20046;-49
2023/10/25 03:15:30;;;;;;;4.60;1.38;;;11.50;99.90;;;;;;5033354;28;20069;-46
2023/10/25 03:17:56;;;;;;;1.88;1.00;;;11.50;99.90;;;;;;5033352;28;20034;-49
2023/10/25 03:20:21;;;;;;;3.08;1.35;;;11.50;99.90;;;;;;5033468;28;20052;-48
2023/10/25 03:22:47;;;;;;;4.07;1.33;;;11.50;99.90;;;;;;5033506;28;20146;-51
2023/10/25 03:25:12;;;;;;;2.28;1.05;;;11.50;99.90;;;;;;5033492;28;20072;-48
2023/10/25 03:27:38;;;;;;;2.75;1.30;;;11.50;99.90;;;;;;5033100;28;20037;-57
2023/10/25 03:30:04;;;;;;;1.77;1.00;;;11.50;99.90;;;;;;5033232;28;20045;-47
2023/10/25 03:32:30;;;;;;;4.13;1.38;;;11.50;99.90;;;;;;5033163;28;20039;-51
2023/10/25 03:34:56;;;;;;;3.85;1.30;;;11.50;99.90;;;;;;5033047;28;20104;-48
2023/10/25 03:37:21;;;;;;;5.95;1.23;;;11.50;99.90;;;;;;5032623;28;20124;-48
2023/10/25 03:39:47;;;;;;;1.30;0.98;;;11.50;99.90;;;;;;5033138;28;20080;-51
2023/10/25 03:42:13;;;;;;;1.38;1.10;;;11.50;99.90;;;;;;5033127;28;20033;-49
2023/10/25 03:44:38;;;;;;;2.20;1.15;;;11.50;99.90;;;;;;5033279;28;20495;-46
2023/10/25 03:47:04;;;;;;;5.53;1.23;;;11.50;99.90;;;;;;5032223;28;20028;-50
2023/10/25 03:49:30;;;;;;;3.63;1.38;;;11.50;99.90;;;;;;5032421;28;20040;-55
2023/10/25 03:51:55;;;;;;;2.58;1.15;;;11.50;99.90;;;;;;5032887;28;20021;-49
2023/10/25 03:54:22;;;;;;;4.40;1.40;;;11.50;99.90;;;;;;5032840;28;20040;-46
2023/10/25 03:56:47;;;;;;;3.47;1.50;;;11.50;99.90;;;;;;5032411;28;20098;-49
2023/10/25 03:59:13;;;;;;;2.22;1.20;;;11.50;99.90;;;;;;5032324;28;20049;-46
2023/10/25 04:01:39;;;;;;;3.08;1.23;;;11.50;99.90;;;;;;5032774;28;20480;-46
2023/10/25 04:04:06;;;;;;;2.90;1.10;;;11.50;99.90;;;;;;5032549;28;20452;-48
2023/10/25 04:06:32;;;;;;;2.72;1.35;;;11.50;99.90;;;;;;5032367;28;20034;-53
2023/10/25 04:08:58;;;;;;;3.75;1.27;;;11.50;99.90;;;;;;5032388;28;20439;-50
2023/10/25 04:11:23;;;;;;;2.58;1.50;;;11.50;99.90;;;;;;5032596;28;20099;-56
2023/10/25 04:13:49;;;;;;;5.15;1.30;;;11.50;99.90;;;;;;5031710;28;20175;-46
2023/10/25 04:16:15;;;;;;;2.20;1.30;;;11.50;99.90;;;;;;5032040;28;20188;-50
2023/10/25 04:18:40;;;;;;;2.90;1.35;;;11.60;99.90;;;;;;5032246;28;20025;-48
2023/10/25 04:21:11;;;;;;;4.40;1.75;;;11.60;99.90;;;;;;5032122;28;20044;-51
2023/10/25 04:23:37;;;;;;;3.08;1.85;;;11.60;99.90;;;;;;5022098;28;20022;-56
2023/10/25 04:26:07;;;;;;;3.05;1.58;;;11.60;99.90;;;;;;5032441;28;20109;-49
2023/10/25 04:28:33;;;;;;;5.68;2.00;;;11.60;99.90;;;;;;5031527;28;20112;-52
2023/10/25 04:30:59;;;;;;;3.47;1.67;;;11.60;99.90;;;;;;5032251;28;20014;-45
2023/10/25 04:33:25;;;;;;;4.43;1.67;;;11.60;99.90;;;;;;5032353;28;20033;-55
2023/10/25 04:35:51;;;;;;;6.30;1.80;;;11.60;99.90;;;;;;5032230;28;20025;-51
2023/10/25 04:38:16;;;;;;;3.78;1.67;;;11.60;99.90;;;;;;5031926;28;20160;-48
2023/10/25 04:40:42;;;;;;;3.67;1.90;;;11.60;99.90;;;;;;5032031;28;20032;-54
2023/10/25 04:43:08;;;;;;;3.78;1.90;;;11.70;99.90;;;;;;5031898;28;20033;-49
2023/10/25 04:45:37;;;;;;;4.13;1.80;;;11.70;99.90;;;;;;5031838;28;20029;-46
2023/10/25 04:48:03;;;;;;;5.07;1.80;;;11.70;99.90;;;;;;5022936;28;20132;-50
2023/10/25 04:50:34;;;;;;;4.03;2.05;;;11.70;99.90;;;;;;5031352;28;20068;-50
2023/10/25 04:53:03;;;;;;;3.53;1.90;;;11.70;99.90;;;;;;5031656;28;20021;-48
2023/10/25 04:55:30;;;;;;;4.85;1.75;;;11.70;99.90;;;;;;5031782;28;20026;-49
2023/10/25 04:57:56;;;;;;;3.45;1.80;;;11.70;99.90;;;;;;5031457;28;20033;-50
2023/10/25 05:00:22;;;;;;;4.85;1.85;;;11.70;99.90;;;;;;5031703;28;20037;-47
2023/10/25 05:02:48;;;;;;;5.30;2.40;;;11.70;99.90;;;;;;5030936;28;20070;-49
2023/10/25 05:05:14;;;;;;;3.88;2.00;;;11.70;99.90;;;;;;5031626;28;20104;-49
2023/10/25 05:07:40;;;;;;;4.97;1.85;;;11.70;99.90;;;;;;5030818;28;20147;-51
2023/10/25 05:10:09;;;;;;;2.97;1.90;;;11.70;99.90;;;;;;5031364;28;20040;-51
2023/10/25 05:12:38;;;;;;;5.72;1.83;;;11.70;99.90;;;;;;5031418;28;20029;-48
2023/10/25 05:15:05;;;;;;;3.33;1.70;;;11.70;99.90;;;;;;5017708;28;20034;-49
2023/10/25 05:17:31;;;;;;;4.57;2.00;;;11.70;99.90;;;;;;5031345;28;20555;-48
2023/10/25 05:19:57;;;;;;;3.50;2.10;;;11.70;99.90;;;;;;5030764;28;20057;-48
2023/10/25 05:22:25;;;;;;;3.83;1.67;;;11.70;99.90;;;;;;5031122;28;20061;-51
2023/10/25 05:24:51;;;;;;;2.90;1.75;;;11.80;99.90;;;;;;5030558;28;20036;-50
2023/10/25 05:27:17;;;;;;;2.85;1.65;;;11.70;99.90;;;;;;5030667;28;20026;-51
2023/10/25 05:29:42;;;;;;;3.35;1.80;;;11.80;99.90;;;;;;5030731;28;20025;-51
2023/10/25 05:32:14;;;;;;;6.78;2.13;;;11.70;99.90;;;;;;5031127;28;20033;-47
2023/10/25 05:34:40;;;;;;;9.82;2.28;;;11.70;99.90;;;;;;5030868;28;20026;-55
2023/10/25 05:37:06;;;;;;;4.28;2.05;;;11.70;99.90;;;;;;5030775;28;20074;-53
2023/10/25 05:39:32;;;;;;;4.13;1.98;;;11.80;99.90;;;;;;5030228;28;20512;-46
2023/10/25 05:42:04;;;;;;;5.68;2.13;;;11.70;99.90;;;;;;5012904;28;20037;-50
2023/10/25 05:44:30;;;;;;;6.47;2.28;;;11.80;99.90;;;;;;5030437;28;20022;-47
2023/10/25 05:46:56;;;;;;;5.05;2.38;;;11.80;99.90;;;;;;5023900;28;20124;-49
2023/10/25 05:49:22;;;;;;;5.55;2.10;;;11.80;99.90;;;;;;5029142;28;20166;-52
2023/10/25 05:51:48;;;;;;;5.47;2.58;;;11.80;99.90;;;;;;5012910;28;20083;-52
2023/10/25 05:54:14;;;;;;;4.85;2.45;;;11.80;99.90;;;;;;5030450;28;20388;-55
2023/10/25 05:56:40;;;;;;;4.22;2.60;;;11.80;99.90;;;;;;5012667;28;20044;-53
2023/10/25 05:59:06;;;;;;;6.75;2.25;;;11.80;99.90;;;;;;5030108;28;20120;-52
2023/10/25 06:01:43;;;;;;;3.60;2.08;;;11.80;99.90;;;;;;5030231;28;20034;-51
2023/10/25 06:04:11;;;;;;;5.38;2.63;;;11.80;99.90;;;;;;5029726;28;20029;-47
2023/10/25 06:06:40;;;;;;;4.18;2.70;;;11.80;99.90;;;;;;5030240;28;20025;-47
2023/10/25 06:09:06;;;;;;;7.00;2.60;;;11.80;99.90;;;;;;5030666;28;20059;-49
2023/10/25 06:11:32;;;;;;;3.80;2.13;;;11.80;99.90;;;;;;5030586;28;20515;-54
2023/10/25 06:13:58;;;;;;;5.20;2.78;;;11.80;99.90;;;;;;5027749;28;20030;-49
2023/10/25 06:16:24;;;;;;;7.15;2.67;;;11.70;99.90;;;;;;5027891;28;20530;-46
2023/10/25 06:18:49;;;;;;;5.20;2.50;;;11.80;99.90;;;;;;5025211;28;20026;-58
2023/10/25 06:21:15;;;;;;;6.07;2.58;;;11.80;99.90;;;;;;5028916;28;20505;-56
2023/10/25 06:23:40;;;;;;;6.13;2.67;;;11.70;99.90;;;;;;5029410;28;20382;-57
2023/10/25 06:26:06;;;;;;;4.78;2.38;;;11.80;99.90;;;;;;5021891;28;20025;-54
2023/10/25 06:28:35;;;;;;;6.55;2.65;;;11.80;99.90;;;;;;5027666;28;20033;-57
2023/10/25 06:31:01;;;;;;;5.30;2.35;;;11.70;99.90;;;;;;5027433;28;20048;-46
2023/10/25 06:33:26;;;;;;;6.22;2.70;;;11.80;99.90;;;;;;5029207;28;20061;-48
2023/10/25 06:35:53;;;;;;;3.28;2.00;;;11.80;99.90;;;;;;5021186;28;20046;-50
2023/10/25 06:38:18;;;;;;;3.97;2.30;;;11.80;99.90;;;;;;5027279;28;20025;-52
2023/10/25 06:40:44;;;;;;;6.18;2.85;;;11.70;99.90;;;;;;5012230;28;20029;-51
2023/10/25 06:43:10;;;;;;;4.10;2.05;;;11.70;99.90;;;;;;5023388;28;20357;-47
2023/10/25 06:45:36;;;;;;;6.20;2.42;;;11.70;99.90;;;;;;5027730;28;20038;-49
2023/10/25 06:48:02;;;;;;;5.15;2.25;;;11.70;99.90;;;;;;5022879;28;20072;-49
2023/10/25 06:50:28;;;;;;;4.75;2.10;;;11.70;99.90;;;;;;5030006;28;20040;-50
2023/10/25 06:52:55;;;;;;;5.20;2.53;;;11.70;99.90;;;;;;5030002;28;20068;-47
2023/10/25 06:55:20;;;;;;;4.72;2.58;;;11.80;99.90;;;;;;5029949;28;20021;-50
2023/10/25 06:57:48;;;;;;;9.07;3.17;;;11.70;99.90;;;;;;5029516;28;20082;-45
2023/10/25 07:00:14;;;;;;;6.65;2.80;;;11.80;99.90;;;;;;5029411;28;20528;-46
2023/10/25 07:03:01;;;;;;;7.68;2.97;;;11.70;99.90;;;;;;5012162;28;20403;-48
2023/10/25 07:05:29;;;;;;;4.97;2.72;;;11.80;99.90;;;;;;5023970;28;20025;-51
2023/10/25 07:07:56;;;;;;;5.03;2.70;;;11.80;99.90;;;;;;5025717;28;20029;-49
2023/10/25 07:10:22;;;;;;;5.90;3.10;;;11.80;99.90;;;;;;5029782;28;20112;-50
2023/10/25 07:12:48;;;;;;;7.97;3.47;;;11.80;99.90;;;;;;5024353;28;20084;-51
2023/10/25 07:15:14;;;;;;;5.03;3.08;;;11.80;99.90;;;;;;5031144;28;20033;-47
2023/10/25 07:17:44;;;;;;;6.13;3.03;;;11.80;99.90;;;;;;5021451;28;20068;-47
2023/10/25 07:20:11;;;;;;;5.00;2.70;;;11.80;99.90;;;;;;5030376;28;20021;-47
2023/10/25 07:22:38;;;;;;;6.82;3.15;;;11.80;99.90;;;;;;5031502;28;20466;-51
2023/10/25 07:25:04;;;;;;;9.52;3.38;;;11.80;99.90;;;;;;5021417;28;20100;-48
2023/10/25 07:27:30;;;;;;;6.88;3.60;;;11.80;99.90;;;;;;5032949;28;20037;-49
2023/10/25 07:29:55;;;;;;;5.68;2.50;;;11.80;99.90;;;;;;5032928;28;20028;-50
2023/10/25 07:32:21;;;;;;;7.03;3.58;;;11.80;99.90;;;;;;5026591;28;20026;-50
2023/10/25 07:34:47;;;;;;;8.25;2.95;;;11.90;99.90;;;;;;5028750;28;20506;-54
2023/10/25 07:37:12;;;;;;;6.43;2.53;;;12.00;99.90;;;;;;5028503;28;20069;-55
2023/10/25 07:39:40;;;;;;;6.75;2.92;;;12.00;99.90;;;;;;5031383;28;20025;-58
2023/10/25 07:42:06;;;;;;;12.13;3.20;;;12.10;99.90;;;;;;5030950;28;20025;-49
2023/10/25 07:44:32;;;;;;;5.88;3.25;;;12.20;99.90;;;;;;5032952;28;20025;-61
2023/10/25 07:46:57;;;;;;;5.75;3.00;;;12.30;99.90;;;;;;5025554;28;21672;-60
2023/10/25 07:49:23;;;;;;;4.97;2.70;;;12.30;99.90;;;;;;5029594;28;20033;-58
2023/10/25 07:51:48;;;;;;;6.13;3.08;;;12.30;99.90;;;;;;5031422;28;20080;-59
2023/10/25 07:54:14;;;;;;;5.95;2.65;;;12.40;99.90;;;;;;5023153;28;20072;-58
2023/10/25 07:56:39;;;;;;;6.82;3.25;;;12.50;99.90;;;;;;5023466;28;20041;-58
2023/10/25 07:59:05;;;;;;;5.70;2.80;;;12.60;99.90;;;;;;5027273;28;20404;-56
2023/10/25 08:01:30;;;;;;;4.95;2.47;;;12.70;99.90;;;;;;5030587;28;20156;-53
2023/10/25 08:03:56;;;;;;;7.95;3.03;;;12.80;99.90;;;;;;5026345;28;20042;-53
2023/10/25 08:06:22;;;;;;;6.10;2.58;;;12.90;99.90;;;;;;5027701;28;20089;-57
2023/10/25 08:08:50;;;;;;;7.15;3.20;;;12.90;99.90;;;;;;5029527;28;20021;-50
2023/10/25 08:11:16;;;;;;;5.85;2.58;;;13.00;99.90;;;;;;5025229;28;20125;-56
2023/10/25 08:13:45;;;;;;;7.28;2.88;;;13.10;99.90;;;;;;5014978;28;20049;-49
2023/10/25 08:16:10;;;;;;;5.50;2.80;;;13.10;99.90;;;;;;5028406;28;20087;-53
2023/10/25 08:18:36;;;;;;;6.63;2.78;;;13.10;99.90;;;;;;5030772;28;20033;-53
2023/10/25 08:21:02;;;;;;;9.00;3.13;;;13.10;99.90;;;;;;5029607;28;20444;-56
2023/10/25 08:23:28;;;;;;;6.85;3.00;;;13.30;99.90;;;;;;5031367;28;20087;-56
2023/10/25 08:25:58;;;;;;;7.00;3.03;;;13.40;99.90;;;;;;5039097;28;20364;-55
2023/10/25 08:28:24;;;;;;;8.75;2.90;;;13.60;99.90;;;;;;5029547;28;20048;-52
2023/10/25 08:30:49;;;;;;;4.68;2.95;;;13.90;99.90;;;;;;5015019;28;20030;-53
2023/10/25 08:33:15;;;;;;;6.53;2.70;;;14.00;99.90;;;;;;5026547;28;20060;-53
2023/10/25 08:35:41;;;;;;;5.57;2.90;;;14.60;99.90;;;;;;5023957;28;20056;-56
2023/10/25 08:38:06;;;;;;;7.32;2.80;;;15.10;99.90;;;;;;5019971;28;20144;-56
2023/10/25 08:40:32;;;;;;;6.72;2.40;;;15.10;99.90;;;;;;5022667;28;20026;-56
2023/10/25 08:43:01;;;;;;;6.60;2.15;;;15.10;99.90;;;;;;5025134;28;20492;-54
2023/10/25 08:45:28;;;;;;;4.72;2.28;;;15.00;99.90;;;;;;5024260;28;20018;-56
2023/10/25 08:47:55;;;;;;;5.00;2.35;;;14.80;99.90;;;;;;5030607;28;20065;-52
2023/10/25 08:50:20;;;;;;;6.43;2.45;;;14.70;99.90;;;;;;5031124;28;20063;-51
2023/10/25 08:52:49;;;;;;;5.85;2.42;;;14.60;99.90;;;;;;5031236;28;20053;-54
2023/10/25 08:55:18;;;;;;;5.20;2.45;;;14.70;99.90;;;;;;5031840;28;20053;-54
2023/10/25 08:57:44;;;;;;;3.83;2.25;;;14.90;99.90;;;;;;5031646;28;20045;-52
2023/10/25 09:00:12;;;;;;;17.50;10.75;;;15.10;99.90;;;;;;5031690;28;20191;-52
2023/10/25 09:02:39;;;;;;;3.92;2.60;;;15.10;99.90;;;;;;5031368;28;20419;-57
2023/10/25 09:05:08;;;;;;;4.00;1.90;;;15.10;99.90;;;;;;5031707;28;20053;-52
2023/10/25 09:07:37;;;;;;;5.05;2.17;;;15.20;99.90;;;;;;5031571;28;20395;-57
2023/10/25 09:10:17;;;;;;;4.35;2.08;;;15.30;99.90;;;;;;5031607;28;20025;-57
2023/10/25 09:12:45;;;;;;;5.13;2.40;;;15.40;99.90;;;;;;5029967;28;20030;-54
2023/10/25 09:15:10;;;;;;;6.88;2.00;;;15.30;99.90;;;;;;5023781;28;20034;-50
2023/10/25 09:17:36;;;;;;;4.72;2.00;;;15.10;99.90;;;;;;5002436;28;20057;-56
2023/10/25 09:20:06;;;;;;;3.30;1.90;;;15.10;99.90;;;;;;5030602;28;20028;-58
2023/10/25 09:22:31;;;;;;;5.57;2.17;;;15.40;99.90;;;;;;5031150;28;20033;-48
2023/10/25 09:25:01;;;;;;;4.15;2.10;;;15.70;99.90;;;;;;5029269;28;20036;-49
2023/10/25 09:27:28;;;;;;;4.25;1.90;;;16.20;99.90;;;;;;5030942;28;20033;-49
2023/10/25 09:30:09;;;;;;;3.20;1.90;;;16.40;99.90;;;;;;5030263;28;20112;-50
2023/10/25 09:32:36;;;;;;;3.05;1.83;;;16.30;99.90;;;;;;5030764;28;20108;-50
2023/10/25 09:35:03;;;;;;;4.05;1.90;;;15.90;99.90;;;;;;5024162;28;20103;-51
2023/10/25 09:37:28;;;;;;;16.63;1.98;;;15.70;99.90;;;;;;5024705;28;20378;-59
2023/10/25 09:39:54;;;;;;;4.05;1.70;;;15.50;99.90;;;;;;5029326;28;20481;-55
2023/10/25 09:42:25;;;;;;;6.15;1.90;;;15.60;99.90;;;;;;5030547;28;20104;-56
2023/10/25 09:45:01;;;;;;;4.03;2.35;;;15.90;99.90;;;;;;5030511;28;20464;-52
2023/10/25 09:47:35;;;;;;;5.38;1.40;;;16.80;99.90;;;;;;5030322;28;20090;-55
2023/10/25 09:50:10;;;;;;;3.72;1.30;;;17.20;99.90;;;;;;5031086;28;20097;-58
2023/10/25 09:52:39;;;;;;;5.85;1.48;;;17.50;99.90;;;;;;5029779;28;20021;-49
2023/10/25 09:55:25;;;;;;;5.10;1.48;;;17.70;99.90;;;;;;5029092;28;20014;-57
2023/10/25 09:57:57;;;;;;;2.90;1.30;;;17.60;99.90;;;;;;5028550;28;20069;-52
2023/10/25 10:00:23;;;;;;;3.70;1.85;;;17.40;99.90;;;;;;5029968;28;20022;-54
2023/10/25 10:03:32;;;;;;;3.92;1.63;;;17.40;99.90;;;;;;5029574;28;20032;-51
2023/10/25 10:06:22;;;;;;;3.83;1.50;;;17.10;99.90;;;;;;4992603;28;20033;-55
2023/10/25 10:08:52;;;;;;;6.05;1.77;;;17.00;99.90;;;;;;5030553;28;20472;-53
2023/10/25 10:11:24;;;;;;;3.50;1.50;;;16.80;99.90;;;;;;5030614;28;20047;-52
2023/10/25 10:14:27;;;;;;;5.60;1.58;;;16.40;99.90;;;;;;5030741;28;20037;-51
2023/10/25 10:16:57;;;;;;;6.95;1.60;;;16.10;99.90;;;;;;5030900;28;20030;-52
2023/10/25 10:19:23;;;;;;;3.60;1.63;;;15.80;99.90;;;;;;5030849;28;20087;-57
2023/10/25 10:22:21;;;;;;;4.10;1.55;;;15.70;99.90;;;;;;5030633;28;20029;-48
2023/10/25 10:24:56;;;;;;;5.00;1.55;;;15.70;99.90;;;;;;4976309;28;20488;-48
2023/10/25 10:27:51;;;;;;;2.60;1.50;;;15.60;99.90;;;;;;5030549;28;20503;-51
2023/10/25 10:30:39;;;;;;;2.40;1.40;;;15.50;99.90;;;;;;5017260;28;20477;-49
2023/10/25 10:33:11;;;;;;;4.78;2.35;;;15.50;99.90;;;;;;5030386;28;20116;-56
2023/10/25 10:35:48;;;;;;;9.77;1.73;;;15.50;99.90;;;;;;5030626;28;20428;-57
2023/10/25 10:38:14;;;;;;;5.38;1.70;;;15.50;99.90;;;;;;5030489;28;20041;-47
2023/10/25 10:40:40;;;;;;;3.63;2.08;;;15.60;99.90;;;;;;5030439;28;20556;-46
2023/10/25 10:43:08;;;;;;;5.70;1.92;;;15.60;99.90;;;;;;5030731;28;20037;-47
2023/10/25 10:45:34;;;;;;;3.03;1.55;;;15.70;99.90;;;;;;5030104;28;20026;-52
2023/10/25 10:48:21;;;;;;;5.38;1.85;;;15.90;99.90;;;;;;5030422;28;20076;-51
2023/10/25 10:50:49;;;;;;;4.53;1.90;;;16.10;99.90;;;;;;5034247;28;20096;-47
2023/10/25 10:53:14;;;;;;;3.88;1.88;;;16.10;99.90;;;;;;5034164;28;20491;-50
2023/10/25 10:55:40;;;;;;;2.22;1.30;;;16.00;99.90;;;;;;5033946;28;20026;-49
2023/10/25 10:58:07;;;;;;;2.85;1.40;;;16.00;99.90;;;;;;5033763;28;20041;-51
2023/10/25 11:00:33;;;;;;;2.67;1.17;;;16.10;99.90;;;;;;5034329;28;20037;-51
2023/10/25 11:03:02;;;;;;;2.22;1.35;;;16.00;99.90;;;;;;5033663;28;20021;-48
2023/10/25 11:05:29;;;;;;;3.88;1.60;;;16.00;99.90;;;;;;5034080;28;20061;-48
2023/10/25 11:07:54;;;;;;;4.32;1.40;;;15.90;99.90;;;;;;5033776;28;20026;-53
2023/10/25 11:10:21;;;;;;;2.97;1.80;;;15.80;99.90;;;;;;5034469;28;20120;-56
2023/10/25 11:12:47;;;;;;;3.83;1.60;;;15.90;99.90;;;;;;5033557;28;20030;-47
2023/10/25 11:15:13;;;;;;;3.17;1.52;;;15.90;99.90;;;;;;5033753;28;20037;-51
2023/10/25 11:17:39;;;;;;;2.80;1.48;;;15.80;99.90;;;;;;5033624;28;20029;-53
2023/10/25 11:20:06;;;;;;;4.28;1.60;;;15.80;99.90;;;;;;5033552;28;20033;-55
2023/10/25 11:22:32;;;;;;;3.13;1.67;;;15.80;99.90;;;;;;5033688;28;20038;-50
2023/10/25 11:24:58;;;;;;;3.00;1.70;;;15.70;99.90;;;;;;5033356;28;20029;-47
2023/10/25 11:27:31;;;;;;;4.88;2.20;;;15.70;99.90;;;;;;5033498;28;20479;-56
2023/10/25 11:29:58;;;;;;;2.83;1.95;;;15.50;99.90;;;;;;5033350;28;20029;-47
2023/10/25 11:32:23;;;;;;;4.00;2.10;;;15.60;99.90;;;;;;5033660;28;20021;-57
2023/10/25 11:34:54;;;;;;;7.03;2.40;;;15.70;99.90;;;;;;5033215;28;20416;-57
2023/10/25 11:37:20;;;;;;;4.50;2.13;;;15.90;99.90;;;;;;5033181;28;20033;-53
2023/10/25 11:40:02;;;;;;;3.83;2.20;;;16.10;99.90;;;;;;5015519;28;20453;-52
2023/10/25 11:42:32;;;;;;;5.50;2.67;;;16.10;99.90;;;;;;5033430;28;20134;-47
2023/10/25 11:45:03;;;;;;;4.85;2.60;;;15.90;99.90;;;;;;5033100;28;20034;-49
2023/10/25 11:47:31;;;;;;;4.30;2.70;;;15.80;99.90;;;;;;5032989;28;20032;-54
2023/10/25 11:49:58;;;;;;;4.95;2.22;;;15.90;99.90;;;;;;5033176;28;20033;-48
2023/10/25 11:52:28;;;;;;;8.95;3.42;;;16.00;99.90;;;;;;5032761;28;20037;-49
2023/10/25 11:54:55;;;;;;;4.43;2.70;;;16.10;99.90;;;;;;5033291;28;20372;-54
2023/10/25 11:57:32;;;;;;;5.40;3.03;;;16.30;99.90;;;;;;5032836;28;20125;-51
2023/10/25 11:59:57;;;;;;;4.75;3.10;;;16.30;99.90;;;;;;5030168;28;20112;-54
2023/10/25 12:02:25;;;;;;;4.35;2.50;;;16.60;99.90;;;;;;5032343;28;20072;-49
2023/10/25 12:04:51;;;;;;;4.63;2.33;;;16.60;99.90;;;;;;5032726;28;20117;-50
2023/10/25 12:07:17;;;;;;;4.50;2.35;;;16.70;99.90;;;;;;5021117;28;20022;-53
2023/10/25 12:09:45;;;;;;;5.03;2.17;;;16.70;99.90;;;;;;5032555;28;20028;-49
2023/10/25 12:12:11;;;;;;;5.88;2.20;;;16.70;99.90;;;;;;5032731;28;20079;-52
2023/10/25 12:14:37;;;;;;;4.55;2.30;;;16.80;99.90;;;;;;5032516;28;20419;-54
2023/10/25 12:17:03;;;;;;;2.85;1.88;;;16.80;99.90;;;;;;5032383;28;20049;-55
2023/10/25 12:19:29;;;;;;;3.22;2.20;;;16.70;99.90;;;;;;5017827;28;20057;-49
2023/10/25 12:21:57;;;;;;;4.75;2.30;;;16.60;99.90;;;;;;5031205;28;20061;-52
2023/10/25 12:24:24;;;;;;;4.75;2.60;;;16.40;99.90;;;;;;5032403;28;20048;-56
2023/10/25 12:26:49;;;;;;;5.25;2.28;;;16.30;99.90;;;;;;5032406;28;20347;-50
2023/10/25 12:29:15;;;;;;;4.50;2.95;;;16.20;99.90;;;;;;5032395;28;20020;-55
2023/10/25 12:31:41;;;;;;;4.97;2.63;;;16.10;99.90;;;;;;5032166;28;20104;-45
2023/10/25 12:34:06;;;;;;;3.80;2.30;;;16.10;99.90;;;;;;5031846;28;20506;-52
2023/10/25 12:36:32;;;;;;;8.20;2.90;;;16.10;99.90;;;;;;5032199;28;20038;-54
2023/10/25 12:38:57;;;;;;;5.55;2.97;;;16.20;99.90;;;;;;5032361;28;20033;-52
2023/10/25 12:41:23;;;;;;;4.97;2.80;;;16.30;99.90;;;;;;5032139;28;20060;-53
2023/10/25 12:43:49;;;;;;;5.68;2.70;;;16.20;99.90;;;;;;5030734;28;20108;-59
2023/10/25 12:46:14;;;;;;;9.60;2.88;;;16.40;99.90;;;;;;5031604;28;20124;-61